Time;durP1;ratioP1;P1;durP2;ratioP2;P2;SDS_P1;SDS_P2;PMS_P1;PMS_P2;Temp;Humidity;BMP_temperature;BMP_pressure;BME280_temperature;BME280_humidity;BME280_pressure;Samples;Min_cycle;Max_cycle;Signal;HPM_P1;HPM_P2
2022/04/30 00:01:27;;;;;;;8.65;3.33;;;;;;;4.96;58.66;101790.25;5006098;28;20092;-39
2022/04/30 00:03:54;;;;;;;11.10;3.58;;;;;;;4.94;58.76;101796.13;5003403;28;20197;-38
2022/04/30 00:06:21;;;;;;;12.07;3.35;;;;;;;4.92;58.62;101787.44;5004095;28;20481;-40
2022/04/30 00:08:48;;;;;;;8.60;3.53;;;;;;;4.87;59.15;101798.38;5004113;28;20127;-41
2022/04/30 00:11:14;;;;;;;8.48;3.45;;;;;;;4.83;58.93;101793.91;5006355;28;20108;-42
2022/04/30 00:13:41;;;;;;;8.95;3.42;;;;;;;4.82;58.74;101799.84;5001886;28;20101;-40
2022/04/30 00:16:07;;;;;;;8.90;3.67;;;;;;;4.78;59.02;101792.81;5008163;28;20045;-41
2022/04/30 00:18:35;;;;;;;8.07;3.58;;;;;;;4.76;59.07;101792.72;5008594;28;20041;-42
2022/04/30 00:21:02;;;;;;;12.70;3.90;;;;;;;4.73;59.07;101804.53;5006358;28;20053;-43
2022/04/30 00:23:30;;;;;;;8.30;3.90;;;;;;;4.69;59.19;101793.22;5004234;28;20061;-39
2022/04/30 00:25:56;;;;;;;10.52;3.58;;;;;;;4.68;59.46;101804.31;5001109;28;20045;-44
2022/04/30 00:28:25;;;;;;;8.05;3.35;;;;;;;4.65;59.56;101790.41;5003236;28;20514;-41
2022/04/30 00:30:53;;;;;;;8.00;3.55;;;;;;;4.61;59.20;101786.84;5004638;28;20042;-38
2022/04/30 00:33:20;;;;;;;10.02;3.38;;;;;;;4.60;59.55;101788.50;5000047;28;20456;-40
2022/04/30 00:35:48;;;;;;;8.57;3.30;;;;;;;4.58;59.64;101779.88;5007436;28;20077;-40
2022/04/30 00:38:15;;;;;;;9.95;3.60;;;;;;;4.57;59.97;101778.13;5002813;28;20096;-40
2022/04/30 00:40:43;;;;;;;8.48;3.42;;;;;;;4.53;59.77;101778.75;5002435;28;20054;-41
2022/04/30 00:43:09;;;;;;;11.15;3.28;;;;;;;4.49;59.44;101779.38;5003541;28;20093;-41
2022/04/30 00:45:36;;;;;;;13.75;3.92;;;;;;;4.43;59.78;101769.69;5005150;28;20505;-41
2022/04/30 00:48:03;;;;;;;8.20;3.58;;;;;;;4.41;59.45;101775.56;5003502;28;20046;-42
2022/04/30 00:50:36;;;;;;;10.45;4.15;;;;;;;4.39;59.84;101774.63;5008714;28;20046;-46
2022/04/30 00:53:03;;;;;;;10.93;3.58;;;;;;;4.33;59.81;101767.50;4999894;28;20050;-42
2022/04/30 00:55:31;;;;;;;9.95;3.90;;;;;;;4.31;59.91;101775.09;4999256;28;20128;-42
2022/04/30 00:58:04;;;;;;;11.43;3.78;;;;;;;4.30;60.23;101759.63;5006815;28;20054;-38
2022/04/30 01:00:32;;;;;;;10.75;4.15;;;;;;;4.27;60.06;101765.50;5004788;28;20045;-41
2022/04/30 01:03:00;;;;;;;9.77;3.60;;;;;;;4.25;60.86;101761.94;5007844;28;20053;-41
2022/04/30 01:05:27;;;;;;;13.35;4.70;;;;;;;4.24;60.23;101752.50;5006735;28;20038;-43
2022/04/30 01:07:54;;;;;;;9.25;4.30;;;;;;;4.22;60.72;101749.84;4999764;28;20054;-45
2022/04/30 01:10:21;;;;;;;10.43;4.45;;;;;;;4.17;60.47;101745.28;5005928;28;20049;-42
2022/04/30 01:12:47;;;;;;;13.80;4.28;;;;;;;4.13;60.31;101739.16;5007470;28;20180;-38
2022/04/30 01:15:14;;;;;;;10.98;4.28;;;;;;;4.13;60.44;101743.38;5000768;28;20092;-40
2022/04/30 01:17:42;;;;;;;13.07;4.63;;;;;;;4.10;60.61;101737.31;4989121;28;20104;-42
2022/04/30 01:20:10;;;;;;;11.65;4.18;;;;;;;4.08;60.62;101736.34;5006185;28;20050;-39
2022/04/30 01:23:01;;;;;;;9.00;4.05;;;;;;;4.05;60.86;101731.03;5003335;28;20046;-43
2022/04/30 01:25:31;;;;;;;9.15;3.67;;;;;;;4.00;60.99;101732.50;4997844;28;20101;-44
2022/04/30 01:27:59;;;;;;;13.23;4.80;;;;;;;3.96;60.67;101735.72;5004398;28;20050;-41
2022/04/30 01:30:28;;;;;;;8.40;3.67;;;;;;;3.95;60.71;101731.41;5003545;28;20160;-41
2022/04/30 01:38:28;;;;;;;8.68;3.47;;;;;;;3.86;60.55;101719.84;4983434;28;20117;-42
2022/04/30 01:40:54;;;;;;;10.30;4.18;;;;;;;3.84;60.53;101726.59;4986848;28;20078;-41
2022/04/30 01:43:22;;;;;;;14.82;4.60;;;;;;;3.81;60.63;101721.28;4986325;28;20046;-40
2022/04/30 01:45:50;;;;;;;9.85;3.80;;;;;;;3.79;60.44;101728.03;4983397;28;20080;-39
2022/04/30 01:48:17;;;;;;;9.63;3.88;;;;;;;3.78;60.72;101720.25;4983275;28;20042;-41
2022/04/30 01:50:44;;;;;;;10.40;4.55;;;;;;;3.73;60.82;101717.44;4984060;28;20058;-39
2022/04/30 01:53:11;;;;;;;9.70;4.00;;;;;;;3.70;60.81;101717.28;4981247;28;20498;-38
2022/04/30 01:55:38;;;;;;;10.38;4.20;;;;;;;3.67;60.67;101718.00;4981963;28;20476;-41
2022/04/30 01:58:05;;;;;;;9.20;3.80;;;;;;;3.65;60.73;101713.59;4981317;28;20062;-40
2022/04/30 02:00:34;;;;;;;7.53;3.50;;;;;;;3.63;60.62;101720.31;4984529;28;20058;-39
2022/04/30 02:03:13;;;;;;;10.45;3.83;;;;;;;3.60;60.74;101711.69;4983027;28;20047;-38
2022/04/30 02:05:41;;;;;;;10.98;3.72;;;;;;;3.59;61.31;101712.47;4984239;28;20046;-41
2022/04/30 02:08:10;;;;;;;9.38;3.83;;;;;;;3.57;61.70;101708.94;4983848;28;20490;-41
2022/04/30 02:10:40;;;;;;;10.43;4.00;;;;;;;3.57;61.37;101706.38;4985767;28;20521;-37
2022/04/30 02:13:09;;;;;;;12.15;4.47;;;;;;;3.58;62.08;101703.03;4989095;28;20058;-38
2022/04/30 02:15:40;;;;;;;12.05;3.83;;;;;;;3.59;61.03;101703.91;4987696;28;20046;-40
2022/04/30 02:18:12;;;;;;;12.50;4.25;;;;;;;3.60;62.13;101706.56;4982867;28;20066;-41
2022/04/30 02:20:43;;;;;;;9.73;3.78;;;;;;;3.59;61.33;101707.34;4985483;28;21207;-43
2022/04/30 02:23:10;;;;;;;12.98;3.47;;;;;;;3.58;61.07;101710.69;4987092;28;20050;-39
2022/04/30 02:25:37;;;;;;;10.80;3.88;;;;;;;3.58;62.20;101708.16;4982792;28;20101;-44
2022/04/30 02:28:08;;;;;;;11.65;4.30;;;;;;;3.57;61.89;101710.63;4988411;28;20442;-41
2022/04/30 02:30:37;;;;;;;12.50;4.25;;;;;;;3.55;62.33;101707.97;4988187;28;20125;-39
2022/04/30 02:33:08;;;;;;;11.15;4.50;;;;;;;3.54;62.39;101705.31;4988893;28;20457;-38
2022/04/30 02:35:37;;;;;;;11.00;4.15;;;;;;;3.50;61.38;101704.31;4986857;28;20042;-44
2022/04/30 02:38:08;;;;;;;10.48;4.22;;;;;;;3.46;62.47;101703.28;4984149;28;20053;-40
2022/04/30 02:40:36;;;;;;;12.93;4.45;;;;;;;3.46;62.15;101702.38;4986457;28;20038;-40
2022/04/30 02:43:06;;;;;;;11.23;4.68;;;;;;;3.44;62.78;101709.97;4985972;28;20097;-40
2022/04/30 02:45:35;;;;;;;9.75;4.22;;;;;;;3.44;62.72;101706.53;4989387;28;20129;-43
2022/04/30 02:48:04;;;;;;;12.85;4.63;;;;;;;3.43;62.12;101705.66;4986977;28;20105;-39
2022/04/30 02:50:31;;;;;;;14.15;4.35;;;;;;;3.44;62.06;101702.28;4985440;28;20050;-41
2022/04/30 02:52:58;;;;;;;12.95;4.63;;;;;;;3.44;63.08;101702.28;4987820;28;20073;-38
2022/04/30 02:55:26;;;;;;;11.90;4.07;;;;;;;3.44;62.73;101696.28;5001079;28;20046;-40
2022/04/30 03:00:42;;;;;;;11.73;4.07;;;;;;;3.43;62.48;101702.22;5006464;28;20050;-39
2022/04/30 03:03:11;;;;;;;9.40;4.43;;;;;;;3.42;62.02;101696.22;5005959;28;20054;-41
2022/04/30 03:05:40;;;;;;;12.10;4.13;;;;;;;3.42;62.37;101695.31;5003101;28;20417;-40
2022/04/30 03:08:12;;;;;;;12.20;5.03;;;;;;;3.44;62.49;101693.72;5008696;28;20073;-39
2022/04/30 03:10:40;;;;;;;10.52;4.22;;;;;;;3.44;62.91;101698.84;5006688;28;20041;-39
2022/04/30 03:13:07;;;;;;;9.55;4.28;;;;;;;3.44;62.87;101693.72;5006766;28;20062;-41
2022/04/30 03:15:35;;;;;;;9.80;3.92;;;;;;;3.44;62.57;101686.03;5002792;28;20047;-42
2022/04/30 03:23:37;;;;;;;10.07;3.47;;;;;;;3.46;62.92;101681.88;5004902;28;20244;-39
2022/04/30 03:26:05;;;;;;;10.13;4.10;;;;;;;3.45;63.41;101675.88;5004532;28;20528;-42
2022/04/30 03:28:32;;;;;;;11.15;4.60;;;;;;;3.44;62.87;101679.22;5007629;28;20054;-39
2022/04/30 03:30:59;;;;;;;11.63;4.10;;;;;;;3.44;63.10;101679.22;5007656;28;20053;-40
2022/04/30 03:33:26;;;;;;;12.60;4.13;;;;;;;3.46;63.11;101676.75;5005288;28;20889;-40
2022/04/30 03:35:54;;;;;;;13.00;4.57;;;;;;;3.46;63.05;101679.31;5004887;28;20046;-39
2022/04/30 03:38:21;;;;;;;12.57;4.13;;;;;;;3.48;64.07;101680.31;5008077;28;20050;-37
2022/04/30 03:40:48;;;;;;;14.05;4.63;;;;;;;3.48;63.78;101672.59;5005956;28;20194;-41
2022/04/30 03:43:15;;;;;;;10.32;4.20;;;;;;;3.46;63.58;101663.94;4999124;28;20049;-38
2022/04/30 03:45:42;;;;;;;11.65;4.30;;;;;;;3.45;63.71;101654.50;5006687;28;20100;-39
2022/04/30 03:48:09;;;;;;;13.40;3.90;;;;;;;3.43;63.51;101658.66;5000991;28;20894;-40
2022/04/30 03:50:36;;;;;;;9.70;4.18;;;;;;;3.41;63.76;101657.72;5004773;28;20058;-42
2022/04/30 03:53:03;;;;;;;8.68;3.70;;;;;;;3.38;64.21;101657.53;5006593;28;20617;-41
2022/04/30 03:55:30;;;;;;;9.38;3.78;;;;;;;3.34;64.06;101659.03;5004628;28;20046;-40
2022/04/30 03:57:57;;;;;;;10.45;4.45;;;;;;;3.29;63.31;101651.16;5005230;28;20049;-37
2022/04/30 04:00:24;;;;;;;10.75;4.55;;;;;;;3.28;64.32;101651.06;5004555;28;20045;-44
2022/04/30 04:02:51;;;;;;;9.18;4.25;;;;;;;3.25;63.46;101656.00;5003429;28;20128;-39
2022/04/30 04:05:18;;;;;;;9.77;3.50;;;;;;;3.23;64.00;101658.47;5003190;28;20167;-42
2022/04/30 04:07:44;;;;;;;12.88;4.07;;;;;;;3.18;64.23;101654.81;5004121;28;20045;-43
2022/04/30 04:10:12;;;;;;;13.50;4.80;;;;;;;3.16;64.05;101656.38;5006878;28;20120;-40
2022/04/30 04:12:40;;;;;;;12.80;4.85;;;;;;;3.14;64.18;101647.75;5003297;28;20111;-41
2022/04/30 04:17:55;;;;;;;15.73;4.90;;;;;;;3.10;64.24;101663.75;5000113;28;20081;-40
2022/04/30 04:20:25;;;;;;;14.27;5.80;;;;;;;3.11;64.21;101655.28;5003859;28;20066;-42
2022/04/30 04:22:54;;;;;;;15.43;5.70;;;;;;;3.11;64.13;101665.50;5006524;28;20049;-39
2022/04/30 04:28:08;;;;;;;12.60;5.55;;;;;;;3.10;63.67;101658.63;4991152;28;20449;-41
2022/04/30 04:30:35;;;;;;;15.50;5.10;;;;;;;3.08;63.65;101656.84;5006533;28;20050;-40
2022/04/30 04:33:02;;;;;;;13.25;4.15;;;;;;;3.08;63.86;101659.41;5006280;28;20123;-40
2022/04/30 04:35:29;;;;;;;12.57;4.68;;;;;;;3.09;63.86;101660.31;5004376;28;20046;-41
2022/04/30 04:37:56;;;;;;;12.73;4.70;;;;;;;3.10;65.11;101661.19;5001547;28;20057;-40
2022/04/30 04:40:23;;;;;;;12.88;5.05;;;;;;;3.08;64.81;101669.66;5003115;28;20482;-42
2022/04/30 04:42:50;;;;;;;13.32;5.00;;;;;;;3.09;65.19;101657.75;5003323;28;20085;-38
2022/04/30 04:45:16;;;;;;;16.60;5.20;;;;;;;3.08;64.23;101663.69;5002704;28;20091;-41
2022/04/30 04:47:49;;;;;;;12.90;5.20;;;;;;;3.06;65.27;101660.13;5001111;28;20670;-39
2022/04/30 04:50:17;;;;;;;15.18;5.07;;;;;;;3.07;65.01;101659.31;5007301;28;20041;-39
2022/04/30 04:52:45;;;;;;;15.95;5.25;;;;;;;3.06;65.23;101655.91;5005306;28;20486;-42
2022/04/30 04:55:11;;;;;;;13.40;4.38;;;;;;;3.04;64.34;101662.59;5004063;28;20073;-40
2022/04/30 04:57:39;;;;;;;12.30;4.72;;;;;;;3.03;64.73;101665.09;5004583;28;20089;-39
2022/04/30 05:00:07;;;;;;;11.55;4.50;;;;;;;3.04;64.19;101667.72;5004839;28;20108;-42
2022/04/30 05:02:35;;;;;;;11.27;5.22;;;;;;;3.06;65.51;101668.72;5003815;28;20065;-40
2022/04/30 05:05:03;;;;;;;10.77;4.93;;;;;;;3.09;65.53;101665.44;4998818;28;20125;-42
2022/04/30 05:07:29;;;;;;;17.52;5.13;;;;;;;3.09;64.38;101662.88;5005280;28;20613;-42
2022/04/30 05:09:56;;;;;;;12.02;4.57;;;;;;;3.13;64.56;101667.34;5004563;28;20587;-40
2022/04/30 05:12:23;;;;;;;12.98;5.18;;;;;;;3.16;65.28;101676.88;5001212;28;20054;-39
2022/04/30 05:14:52;;;;;;;15.27;5.63;;;;;;;3.16;66.66;101679.44;5001366;28;20050;-39
2022/04/30 05:17:19;;;;;;;15.52;5.85;;;;;;;3.18;65.41;101677.84;5006012;28;20046;-43
2022/04/30 05:19:45;;;;;;;18.48;5.60;;;;;;;3.21;65.16;101680.59;5004955;28;20651;-40
2022/04/30 05:22:14;;;;;;;14.38;5.60;;;;;;;3.23;64.79;101681.53;5007500;28;20052;-40
2022/04/30 05:24:41;;;;;;;14.52;5.13;;;;;;;3.27;65.49;101680.91;5003368;28;20085;-40
2022/04/30 05:27:08;;;;;;;13.25;5.93;;;;;;;3.31;64.90;101677.69;5006249;28;20057;-40
2022/04/30 05:29:52;;;;;;;16.30;6.38;;;;;;;3.42;65.10;101678.28;5005515;28;20065;-41
2022/04/30 05:32:19;;;;;;;14.98;6.15;;;;;;;3.58;65.83;101679.09;5006712;28;20100;-41
2022/04/30 05:34:45;;;;;;;16.80;6.30;;;;;;;3.77;65.97;101677.47;5002398;28;20058;-41
2022/04/30 05:37:13;;;;;;;16.90;6.13;;;;;;;3.95;65.09;101672.44;5004245;28;20049;-43
2022/04/30 05:39:39;;;;;;;17.85;5.57;;;;;;;4.06;65.83;101680.66;5005620;28;20108;-38
2022/04/30 05:42:06;;;;;;;16.33;6.35;;;;;;;4.22;65.58;101678.03;5004926;28;20069;-42
2022/04/30 05:44:33;;;;;;;15.45;6.20;;;;;;;4.44;65.01;101671.41;5000377;28;20552;-40
2022/04/30 05:46:59;;;;;;;17.27;5.95;;;;;;;4.62;65.21;101678.22;5008185;28;20049;-45
2022/04/30 05:49:27;;;;;;;24.77;7.97;;;;;;;4.65;64.98;101680.94;5006988;28;20042;-40
2022/04/30 05:51:53;;;;;;;14.60;5.57;;;;;;;4.61;64.45;101682.50;5010589;28;20054;-40
2022/04/30 05:54:20;;;;;;;13.73;5.38;;;;;;;4.57;64.17;101675.47;5007098;28;20108;-40
2022/04/30 05:56:46;;;;;;;13.05;5.03;;;;;;;4.56;63.93;101678.81;5009943;28;20181;-46
2022/04/30 05:59:13;;;;;;;20.13;5.53;;;;;;;4.53;64.19;101673.56;5009697;28;20057;-40
2022/04/30 06:01:39;;;;;;;14.70;5.53;;;;;;;4.49;64.16;101671.63;5006083;28;20116;-43
2022/04/30 06:04:06;;;;;;;17.35;6.70;;;;;;;4.49;64.53;101666.47;5009332;28;20076;-42
2022/04/30 06:06:33;;;;;;;15.95;5.30;;;;;;;4.51;64.17;101675.16;5008694;28;20089;-42
2022/04/30 06:08:59;;;;;;;14.82;5.95;;;;;;;4.52;64.64;101674.34;5008947;28;20461;-42
2022/04/30 06:11:26;;;;;;;14.57;5.45;;;;;;;4.53;64.71;101678.69;5009900;28;20045;-44
2022/04/30 06:13:53;;;;;;;15.13;5.57;;;;;;;4.56;65.15;101678.81;5005535;28;20054;-45
2022/04/30 06:16:19;;;;;;;13.68;5.07;;;;;;;4.62;64.75;101673.09;5006988;28;20100;-41
2022/04/30 06:18:46;;;;;;;14.18;6.15;;;;;;;4.66;64.83;101677.56;5005984;28;20046;-44
2022/04/30 06:21:32;;;;;;;13.98;5.22;;;;;;;4.70;64.89;101673.47;5007249;28;20140;-46
2022/04/30 06:23:59;;;;;;;17.00;6.22;;;;;;;4.72;65.19;101679.53;5007123;28;20104;-42
2022/04/30 06:26:32;;;;;;;17.27;6.28;;;;;;;4.79;65.37;101676.47;5003276;28;20478;-43
2022/04/30 06:29:00;;;;;;;19.65;6.78;;;;;;;4.85;65.06;101676.75;5007879;28;20048;-43
2022/04/30 06:31:26;;;;;;;15.50;5.97;;;;;;;5.13;65.31;101667.75;5006641;28;20445;-44
2022/04/30 06:33:53;;;;;;;16.48;7.03;;;;;;;5.71;65.99;101682.28;5008709;28;20124;-42
2022/04/30 06:36:19;;;;;;;18.88;6.78;;;;;;;6.30;65.38;101684.78;5007892;28;20053;-41
2022/04/30 06:38:46;;;;;;;14.98;6.30;;;;;;;6.90;65.89;101678.59;5006639;28;20085;-45
2022/04/30 06:41:13;;;;;;;12.65;6.25;;;;;;;7.37;65.14;101677.75;5005001;28;20045;-42
2022/04/30 06:43:41;;;;;;;14.50;5.63;;;;;;;7.84;65.10;101681.97;5007249;28;20508;-40
2022/04/30 06:46:07;;;;;;;13.18;5.13;;;;;;;8.32;64.26;101683.59;5006898;28;20049;-43
2022/04/30 06:48:34;;;;;;;14.60;6.07;;;;;;;8.79;63.84;101685.09;5007755;28;20073;-46
2022/04/30 06:51:01;;;;;;;11.60;4.65;;;;;;;9.22;62.79;101687.22;5008008;28;20116;-46
2022/04/30 06:59:00;;;;;;;10.40;4.28;;;;;;;10.54;60.63;101685.50;5007019;28;20061;-42
2022/04/30 07:01:37;;;;;;;10.20;5.07;;;;;;;10.95;60.79;101683.84;4993419;28;20054;-42
2022/04/30 07:04:06;;;;;;;17.80;5.85;;;;;;;11.42;59.11;101690.88;5002407;28;20556;-46
2022/04/30 07:06:34;;;;;;;14.43;5.50;;;;;;;11.85;58.79;101700.34;5009454;28;20038;-43
2022/04/30 07:09:03;;;;;;;11.23;4.57;;;;;;;12.24;58.24;101692.38;5008170;28;20783;-46
2022/04/30 07:11:30;;;;;;;16.50;5.72;;;;;;;12.66;57.47;101695.66;5008161;28;20049;-47
2022/04/30 07:13:57;;;;;;;13.48;4.13;;;;;;;13.01;56.56;101691.81;5003426;28;20432;-48
2022/04/30 07:16:24;;;;;;;6.72;3.22;;;;;;;13.30;55.92;101699.97;5006566;28;20085;-41
2022/04/30 07:18:50;;;;;;;31.70;9.05;;;;;;;13.66;55.83;101691.75;5002335;28;20062;-42
2022/04/30 07:21:17;;;;;;;34.95;11.73;;;;;;;14.07;55.62;101693.91;5003748;28;20453;-43
2022/04/30 07:23:44;;;;;;;10.00;4.43;;;;;;;14.43;53.59;101681.16;5003229;28;20050;-43
2022/04/30 07:26:10;;;;;;;6.85;3.63;;;;;;;14.77;53.23;101676.19;5006673;28;20057;-45
2022/04/30 07:28:37;;;;;;;7.95;3.15;;;;;;;15.08;52.35;101690.25;5003799;28;20061;-43
2022/04/30 07:31:04;;;;;;;6.18;3.28;;;;;;;15.36;51.63;101691.25;5002093;28;20046;-46
2022/04/30 07:33:31;;;;;;;12.18;4.72;;;;;;;15.72;51.57;101686.16;5004777;28;20046;-44
2022/04/30 07:36:00;;;;;;;5.50;3.05;;;;;;;15.89;49.63;101680.94;5001539;28;20041;-43
2022/04/30 07:38:27;;;;;;;7.30;3.35;;;;;;;15.91;48.35;101681.81;5005451;28;20034;-47
2022/04/30 07:40:54;;;;;;;7.45;2.95;;;;;;;16.14;48.29;101682.75;5004677;28;20085;-44
2022/04/30 07:43:20;;;;;;;6.78;3.33;;;;;;;16.26;47.95;101684.47;5003479;28;20053;-44
2022/04/30 07:45:47;;;;;;;5.40;3.03;;;;;;;16.31;45.72;101682.72;5005825;28;20456;-48
2022/04/30 07:48:14;;;;;;;5.93;3.10;;;;;;;16.37;46.18;101681.84;5002570;28;20077;-50
2022/04/30 07:50:44;;;;;;;8.20;4.00;;;;;;;16.64;46.22;101686.19;5002005;28;20104;-42
2022/04/30 07:53:14;;;;;;;7.25;3.28;;;;;;;16.72;45.49;101683.53;5002918;28;20097;-43
2022/04/30 07:55:42;;;;;;;6.45;3.00;;;;;;;16.83;44.99;101688.75;5002589;28;20050;-46
2022/04/30 07:58:10;;;;;;;7.80;3.50;;;;;;;17.05;45.32;101689.59;5005615;28;20053;-44
2022/04/30 08:00:36;;;;;;;5.97;3.45;;;;;;;17.19;44.61;101686.91;5006516;28;20050;-47
2022/04/30 08:03:03;;;;;;;8.57;3.35;;;;;;;17.46;44.59;101690.28;5006040;28;20112;-45
2022/04/30 08:05:30;;;;;;;7.28;3.38;;;;;;;17.57;44.22;101698.06;5004854;28;20375;-45
2022/04/30 08:07:57;;;;;;;7.35;3.90;;;;;;;17.69;43.46;101693.63;4999537;28;20042;-45
2022/04/30 08:10:24;;;;;;;6.50;2.97;;;;;;;18.03;43.75;101697.81;5004008;28;20092;-50
2022/04/30 08:12:54;;;;;;;9.77;4.20;;;;;;;18.37;43.03;101697.53;5005587;28;20545;-48
2022/04/30 08:15:22;;;;;;;7.80;3.42;;;;;;;18.65;42.72;101699.03;5001139;28;20498;-48
2022/04/30 08:17:49;;;;;;;6.65;3.67;;;;;;;18.79;41.89;101693.63;5001970;28;20050;-47
2022/04/30 08:20:16;;;;;;;8.43;3.15;;;;;;;18.98;40.65;101689.91;5004070;28;20054;-53
2022/04/30 08:22:43;;;;;;;11.23;4.22;;;;;;;19.11;40.33;101690.69;5000049;28;20058;-49
2022/04/30 08:25:10;;;;;;;9.63;4.03;;;;;;;19.25;40.60;101687.03;5002006;28;20117;-45
2022/04/30 08:27:36;;;;;;;7.15;3.90;;;;;;;19.53;40.71;101692.75;5004674;28;20050;-44
2022/04/30 08:30:04;;;;;;;6.47;4.03;;;;;;;19.64;39.55;101679.47;5006252;28;20081;-49
2022/04/30 08:32:30;;;;;;;6.85;3.60;;;;;;;19.80;39.80;101694.13;5004440;28;20474;-46
2022/04/30 08:35:00;;;;;;;8.07;4.47;;;;;;;19.90;39.38;101690.47;5008131;28;20135;-45
2022/04/30 08:37:29;;;;;;;10.02;4.43;;;;;;;20.00;39.37;101684.19;4999148;28;20042;-59
2022/04/30 08:39:55;;;;;;;8.98;4.75;;;;;;;20.08;38.67;101677.94;5006055;28;20177;-46
2022/04/30 08:42:23;;;;;;;10.13;4.43;;;;;;;20.13;38.70;101676.13;5000513;28;20096;-45
2022/04/30 08:44:50;;;;;;;7.22;4.10;;;;;;;20.20;37.86;101676.88;4988026;28;20740;-48
2022/04/30 08:47:17;;;;;;;10.48;4.80;;;;;;;20.01;37.64;101680.69;4988828;28;20104;-46
2022/04/30 08:49:43;;;;;;;8.43;4.72;;;;;;;20.08;38.40;101678.81;4988558;28;20112;-44
2022/04/30 08:52:13;;;;;;;7.20;4.72;;;;;;;20.39;37.69;101677.41;4987933;28;20105;-45
2022/04/30 08:54:39;;;;;;;8.93;4.95;;;;;;;20.37;37.49;101668.69;4987555;28;20058;-48
2022/04/30 08:57:06;;;;;;;9.05;4.35;;;;;;;20.34;37.27;101674.00;4987674;28;20069;-47
2022/04/30 08:59:33;;;;;;;9.10;4.57;;;;;;;20.25;36.86;101675.91;4987641;28;20539;-46
2022/04/30 09:02:01;;;;;;;7.53;4.57;;;;;;;20.31;36.92;101667.03;4988267;28;20105;-46
2022/04/30 09:04:42;;;;;;;8.70;4.65;;;;;;;20.43;36.21;101668.56;4986953;28;20094;-49
2022/04/30 09:07:26;;;;;;;11.90;4.88;;;;;;;20.57;35.61;101662.19;4984456;28;20148;-47
2022/04/30 09:09:55;;;;;;;8.70;4.35;;;;;;;20.74;36.42;101661.88;4986135;28;20046;-43
2022/04/30 09:12:22;;;;;;;9.88;4.57;;;;;;;20.92;35.56;101660.66;4986779;28;20042;-49
2022/04/30 09:14:49;;;;;;;8.05;4.13;;;;;;;20.90;35.51;101657.16;4987058;28;20461;-50
2022/04/30 09:17:16;;;;;;;9.45;4.88;;;;;;;20.96;35.76;101659.69;4988866;28;20042;-50
2022/04/30 09:25:08;;;;;;;8.07;3.95;;;;;;;21.43;34.86;101653.41;5035998;27;20386;-46
2022/04/30 09:27:55;;;;;;;6.60;3.95;;;;;;;21.39;34.70;101649.13;5018426;28;20049;-47
2022/04/30 09:30:25;;;;;;;6.63;3.70;;;;;;;21.40;34.53;101646.44;5018366;28;20379;-46
2022/04/30 09:33:07;;;;;;;8.75;4.80;;;;;;;21.67;34.28;101637.94;5017120;28;20140;-48
2022/04/30 09:38:25;;;;;;;9.18;4.30;;;;;;;22.34;34.52;101641.56;5002887;28;20046;-46
2022/04/30 09:43:31;;;;;;;7.18;3.78;;;;;;;22.72;34.41;101633.50;5031843;27;20398;-49
2022/04/30 09:46:06;;;;;;;8.35;5.05;;;;;;;22.99;33.27;101630.97;5019454;28;20072;-45
2022/04/30 09:54:08;;;;;;;7.10;4.03;;;;;;;23.36;31.71;101623.72;5022410;28;20049;-51
2022/04/30 09:56:36;;;;;;;9.55;4.20;;;;;;;23.29;32.58;101628.31;5020053;28;20049;-43
2022/04/30 09:59:13;;;;;;;8.27;3.97;;;;;;;23.18;32.04;101620.72;5022973;28;20096;-49
2022/04/30 10:01:42;;;;;;;7.07;4.45;;;;;;;23.29;32.00;101615.09;5021675;28;20049;-47
2022/04/30 10:04:12;;;;;;;5.85;3.75;;;;;;;23.00;31.53;101622.13;5024062;28;20053;-45
2022/04/30 10:06:43;;;;;;;6.93;4.35;;;;;;;23.02;32.48;101615.03;5023966;28;20046;-50
2022/04/30 10:09:21;;;;;;;8.02;4.00;;;;;;;23.23;32.41;101615.25;5021246;28;20096;-48
2022/04/30 10:14:34;;;;;;;10.82;6.88;;;;;;;23.11;32.22;101612.09;5060289;28;20436;-45
2022/04/30 10:17:17;;;;;;;8.40;5.18;;;;;;;23.27;32.35;101598.41;5042727;28;20104;-47
2022/04/30 10:19:55;;;;;;;7.50;5.25;;;;;;;23.26;31.79;101596.69;5056592;28;20485;-50
2022/04/30 10:22:22;;;;;;;7.32;4.88;;;;;;;23.30;31.76;101598.31;5045750;28;20041;-52
2022/04/30 10:24:53;;;;;;;6.80;4.95;;;;;;;23.41;31.65;101594.50;5055955;28;20094;-47
2022/04/30 10:27:19;;;;;;;8.73;5.97;;;;;;;23.36;31.01;101592.88;5057691;28;20079;-49
2022/04/30 10:29:56;;;;;;;7.43;5.03;;;;;;;23.48;31.68;101577.53;5046689;28;20099;-48
2022/04/30 10:32:26;;;;;;;10.50;5.03;;;;;;;23.49;31.09;101581.88;5045220;28;20114;-48
2022/04/30 10:34:53;;;;;;;7.53;5.22;;;;;;;23.47;31.09;101579.28;5058364;28;20067;-49
2022/04/30 10:37:38;;;;;;;8.77;7.30;;;;;;;23.29;29.85;101570.16;5057999;28;20430;-47
2022/04/30 10:40:07;;;;;;;9.30;6.93;;;;;;;22.90;31.08;101565.22;5054874;28;20053;-49
2022/04/30 10:42:44;;;;;;;8.25;5.10;;;;;;;22.76;30.49;101561.19;5048931;28;20049;-45
2022/04/30 10:45:15;;;;;;;10.65;5.13;;;;;;;22.56;31.36;101560.00;5055010;28;20095;-46
2022/04/30 10:47:59;;;;;;;7.65;6.15;;;;;;;22.51;30.94;101553.97;5055811;28;20469;-43
2022/04/30 10:50:27;;;;;;;6.47;4.97;;;;;;;22.72;31.80;101554.28;5059972;28;20127;-46
2022/04/30 10:52:55;;;;;;;6.93;4.72;;;;;;;22.87;31.52;101555.59;5059324;28;20036;-51
2022/04/30 10:55:24;;;;;;;9.77;5.88;;;;;;;22.78;31.21;101559.38;5057575;28;20128;-52
2022/04/30 10:57:50;;;;;;;7.18;5.05;;;;;;;22.79;30.97;101550.53;5056842;28;20095;-47
2022/04/30 11:00:17;;;;;;;7.75;4.90;;;;;;;22.98;30.57;101544.69;5050823;28;20057;-49
2022/04/30 11:02:48;;;;;;;10.15;5.70;;;;;;;23.09;30.99;101547.88;5054780;28;20041;-44
2022/04/30 11:05:22;;;;;;;7.80;5.47;;;;;;;23.23;29.21;101543.91;5054323;28;20095;-49
2022/04/30 11:07:50;;;;;;;6.57;5.10;;;;;;;23.17;29.84;101538.84;5054547;28;20141;-44
2022/04/30 11:10:17;;;;;;;8.20;5.47;;;;;;;23.26;30.31;101532.41;5055608;28;20140;-50
2022/04/30 11:12:44;;;;;;;7.32;4.28;;;;;;;23.37;30.27;101535.56;5055114;28;20565;-48
2022/04/30 11:15:14;;;;;;;6.72;4.93;;;;;;;23.40;29.38;101529.31;5051567;28;20514;-48
2022/04/30 11:17:42;;;;;;;7.22;5.07;;;;;;;23.17;30.19;101522.97;5060428;28;20041;-44
2022/04/30 11:20:22;;;;;;;7.40;4.50;;;;;;;23.02;30.63;101519.03;5052666;28;20415;-46
2022/04/30 11:22:53;;;;;;;8.13;4.97;;;;;;;23.12;31.08;101512.56;5050624;28;20048;-47
2022/04/30 11:25:20;;;;;;;9.98;5.50;;;;;;;23.26;31.12;101512.09;5042339;28;20037;-43
2022/04/30 11:27:47;;;;;;;11.07;5.53;;;;;;;23.48;31.25;101511.41;5039392;28;20048;-48
2022/04/30 11:30:14;;;;;;;11.15;5.45;;;;;;;23.48;31.14;101508.78;5036762;28;20064;-45
2022/04/30 11:32:47;;;;;;;6.85;4.30;;;;;;;23.47;30.05;101504.41;5045372;28;20452;-49
2022/04/30 11:35:16;;;;;;;8.85;5.90;;;;;;;23.44;30.92;101504.50;5046587;28;20072;-45
2022/04/30 11:37:43;;;;;;;7.05;5.30;;;;;;;23.59;30.55;101503.13;5039361;28;20124;-45
2022/04/30 11:40:11;;;;;;;8.13;4.93;;;;;;;23.67;30.38;101506.34;5048402;28;20578;-51
2022/04/30 11:42:39;;;;;;;8.98;4.85;;;;;;;23.55;30.50;101498.84;5043049;28;20103;-49
2022/04/30 11:45:06;;;;;;;10.40;5.57;;;;;;;23.35;29.92;101490.69;5036193;28;20566;-53
2022/04/30 11:47:33;;;;;;;4.97;4.15;;;;;;;23.29;30.49;101487.34;5038304;28;20045;-44
2022/04/30 11:50:05;;;;;;;8.88;4.60;;;;;;;23.18;28.93;101482.41;5039621;28;20141;-42
2022/04/30 11:52:33;;;;;;;6.47;4.82;;;;;;;23.11;30.04;101479.97;5039022;28;20060;-45
2022/04/30 11:55:03;;;;;;;10.52;5.25;;;;;;;22.93;30.83;101473.50;5030495;28;20100;-51
2022/04/30 11:57:31;;;;;;;5.43;4.57;;;;;;;22.95;29.67;101470.81;5028458;28;20050;-46
2022/04/30 11:59:58;;;;;;;8.23;3.97;;;;;;;22.93;29.84;101470.03;5031905;28;20045;-52
2022/04/30 12:02:29;;;;;;;11.30;4.85;;;;;;;22.98;30.03;101457.53;5039257;28;20049;-43
2022/04/30 12:05:02;;;;;;;6.03;4.25;;;;;;;22.97;30.08;101459.28;5031445;28;20794;-47
2022/04/30 12:07:39;;;;;;;5.43;4.65;;;;;;;22.98;30.30;101454.88;5036965;28;20045;-50
2022/04/30 12:10:24;;;;;;;7.95;4.85;;;;;;;23.00;30.65;101441.63;5036400;28;20041;-46
2022/04/30 12:12:52;;;;;;;6.57;5.20;;;;;;;23.07;30.57;101438.72;5031859;28;20045;-50
2022/04/30 12:15:22;;;;;;;6.28;3.75;;;;;;;23.08;29.73;101440.47;5035140;28;20046;-46
2022/04/30 12:24:40;;;;;;;6.68;3.97;;;;;;;23.03;30.73;101429.16;5041367;28;20052;-45